Time;durP1;ratioP1;P1;durP2;ratioP2;P2;SDS_P1;SDS_P2;PMS_P1;PMS_P2;Temp;Humidity;BMP_temperature;BMP_pressure;BME280_temperature;BME280_humidity;BME280_pressure;Samples;Min_cycle;Max_cycle;Signal;HPM_P1;HPM_P2
2022/03/10 00:00:42;;;;;;;9.40;4.93;;;1.30;99.90;;;;;;5022082;28;20076;-65
2022/03/10 00:03:09;;;;;;;6.93;4.95;;;1.30;99.90;;;;;;5027214;28;20057;-65
2022/03/10 00:05:37;;;;;;;6.35;5.13;;;1.30;99.90;;;;;;5017091;28;20871;-68
2022/03/10 00:08:05;;;;;;;6.45;4.80;;;1.30;99.90;;;;;;5022481;28;20139;-68
2022/03/10 00:10:32;;;;;;;7.28;5.35;;;1.30;99.90;;;;;;5018452;28;20058;-70
2022/03/10 00:13:03;;;;;;;11.85;5.35;;;1.30;99.90;;;;;;5020602;28;20064;-66
2022/03/10 00:15:30;;;;;;;8.02;5.25;;;1.30;99.90;;;;;;5019541;28;20053;-65
2022/03/10 00:18:01;;;;;;;9.75;4.90;;;1.30;99.90;;;;;;5021081;28;20180;-65
2022/03/10 00:20:28;;;;;;;8.18;5.20;;;1.30;99.90;;;;;;5018902;28;20104;-68
2022/03/10 00:22:56;;;;;;;9.65;5.57;;;1.30;99.90;;;;;;5027170;28;20050;-64
2022/03/10 00:25:24;;;;;;;8.80;5.05;;;1.30;99.90;;;;;;4998357;28;20690;-70
2022/03/10 00:27:51;;;;;;;6.65;5.25;;;1.30;99.90;;;;;;5022086;28;20096;-64
2022/03/10 00:30:18;;;;;;;6.68;4.88;;;1.30;99.90;;;;;;5020735;28;20447;-71
2022/03/10 00:32:51;;;;;;;5.18;4.07;;;1.30;99.90;;;;;;5021668;28;20171;-73
2022/03/10 00:35:20;;;;;;;7.57;4.20;;;1.30;99.90;;;;;;5019209;28;20152;-66
2022/03/10 00:37:55;;;;;;;6.85;4.25;;;1.30;99.90;;;;;;5019974;28;20119;-68
2022/03/10 00:40:24;;;;;;;8.30;4.57;;;1.30;99.90;;;;;;5025146;28;20076;-66
2022/03/10 00:42:51;;;;;;;6.10;4.00;;;1.30;99.90;;;;;;5017126;28;20141;-70
2022/03/10 00:45:18;;;;;;;5.95;4.18;;;1.30;99.90;;;;;;5022390;28;20077;-68
2022/03/10 00:47:45;;;;;;;7.13;4.70;;;1.30;99.90;;;;;;5019307;28;20244;-68
2022/03/10 00:50:12;;;;;;;6.78;4.68;;;1.30;99.90;;;;;;5020769;28;20812;-74
2022/03/10 00:52:40;;;;;;;5.70;4.68;;;1.30;99.90;;;;;;5018013;28;20862;-65
2022/03/10 00:55:08;;;;;;;6.00;5.10;;;1.30;99.90;;;;;;5021275;28;20175;-64
2022/03/10 00:57:36;;;;;;;8.55;4.75;;;1.30;99.90;;;;;;5015641;28;20054;-66
2022/03/10 01:00:05;;;;;;;6.47;5.20;;;1.30;99.90;;;;;;5020759;28;20382;-68
2022/03/10 01:02:33;;;;;;;5.07;4.20;;;1.30;99.90;;;;;;5017913;28;20087;-66
2022/03/10 01:05:01;;;;;;;4.88;4.35;;;1.40;99.90;;;;;;5019784;28;20056;-66
2022/03/10 01:07:28;;;;;;;7.53;4.80;;;1.30;99.90;;;;;;5020845;28;20502;-69
2022/03/10 01:09:55;;;;;;;6.47;4.57;;;1.40;99.90;;;;;;5021542;28;20073;-64
2022/03/10 01:12:22;;;;;;;8.60;5.88;;;1.40;99.90;;;;;;5017816;28;20049;-65
2022/03/10 01:14:49;;;;;;;8.80;6.15;;;1.40;99.90;;;;;;5018796;28;20181;-71
2022/03/10 01:17:15;;;;;;;6.97;4.82;;;1.50;99.90;;;;;;5020477;28;20145;-67
2022/03/10 01:19:43;;;;;;;6.95;5.32;;;1.50;99.90;;;;;;5019263;28;20057;-65
2022/03/10 01:22:10;;;;;;;6.00;4.75;;;1.50;99.90;;;;;;5019847;28;20049;-66
2022/03/10 01:24:36;;;;;;;7.57;5.50;;;1.50;99.90;;;;;;5017608;28;20044;-71
2022/03/10 01:27:03;;;;;;;7.32;5.07;;;1.50;99.90;;;;;;5014830;28;20821;-66
2022/03/10 01:29:30;;;;;;;8.70;5.57;;;1.50;99.90;;;;;;5019108;28;20152;-71
2022/03/10 01:31:57;;;;;;;10.25;5.25;;;1.50;99.90;;;;;;5021012;28;20111;-69
2022/03/10 01:34:24;;;;;;;5.30;4.80;;;1.50;99.90;;;;;;5024708;28;20047;-67
2022/03/10 01:36:51;;;;;;;8.50;5.45;;;1.50;99.90;;;;;;5022322;28;20418;-71
2022/03/10 01:39:18;;;;;;;6.43;5.80;;;1.50;99.90;;;;;;5022061;28;20157;-71
2022/03/10 01:41:45;;;;;;;6.57;4.93;;;1.50;99.90;;;;;;5025347;28;20092;-68
2022/03/10 01:44:12;;;;;;;7.65;5.10;;;1.50;99.90;;;;;;5024378;28;20680;-67
2022/03/10 01:46:39;;;;;;;7.55;5.20;;;1.60;99.90;;;;;;5027657;28;20045;-69
2022/03/10 01:49:07;;;;;;;5.82;4.40;;;1.60;99.90;;;;;;5024652;28;20050;-67
2022/03/10 01:51:34;;;;;;;8.20;5.97;;;1.60;99.90;;;;;;5023972;28;20053;-67
2022/03/10 01:54:03;;;;;;;6.10;4.43;;;1.60;99.90;;;;;;5017025;28;20100;-64
2022/03/10 01:56:31;;;;;;;8.48;4.15;;;1.50;99.90;;;;;;5021951;28;20046;-67
2022/03/10 01:59:00;;;;;;;7.50;5.45;;;1.60;99.90;;;;;;5027457;28;20068;-70
2022/03/10 02:01:27;;;;;;;7.53;4.93;;;1.60;99.90;;;;;;5009050;28;20128;-67
2022/03/10 02:03:58;;;;;;;5.00;4.45;;;1.60;99.90;;;;;;5020767;28;20056;-66
2022/03/10 02:06:25;;;;;;;4.25;3.88;;;1.60;99.90;;;;;;5021896;28;20049;-73
2022/03/10 02:11:39;;;;;;;6.10;4.28;;;1.60;99.90;;;;;;5022156;28;20963;-69
2022/03/10 02:17:37;;;;;;;4.03;3.63;;;1.60;99.90;;;;;;5018746;28;20188;-74
2022/03/10 02:19:39;;;;;;;6.40;3.58;;;1.70;99.90;;;;;;5009346;28;20037;-63
2022/03/10 02:22:11;;;;;;;4.15;3.10;;;1.70;99.90;;;;;;5021020;28;20478;-75
2022/03/10 02:24:41;;;;;;;3.60;2.88;;;1.60;99.90;;;;;;5025213;28;20494;-67
2022/03/10 02:27:22;;;;;;;5.88;4.25;;;1.70;99.90;;;;;;5021534;28;20130;-67
2022/03/10 02:29:55;;;;;;;3.72;3.33;;;1.70;99.90;;;;;;5019920;28;20123;-64
2022/03/10 02:32:22;;;;;;;4.10;3.70;;;1.70;99.90;;;;;;5029016;28;20053;-68
2022/03/10 02:34:50;;;;;;;3.97;3.58;;;1.60;99.90;;;;;;5016073;28;20053;-69
2022/03/10 02:37:19;;;;;;;3.83;3.50;;;1.60;99.90;;;;;;5026926;28;20048;-64
2022/03/10 02:39:47;;;;;;;4.00;3.42;;;1.70;99.90;;;;;;5020966;28;20116;-67
2022/03/10 02:42:14;;;;;;;4.70;3.83;;;1.70;99.90;;;;;;5010673;28;20050;-65
2022/03/10 02:44:43;;;;;;;9.25;4.53;;;1.70;99.90;;;;;;5018243;28;20132;-67
2022/03/10 02:47:10;;;;;;;3.53;3.22;;;1.70;99.90;;;;;;5025660;28;20135;-65
2022/03/10 02:49:38;;;;;;;3.38;3.08;;;1.70;99.90;;;;;;5020527;28;20103;-66
2022/03/10 02:52:06;;;;;;;3.70;3.40;;;1.70;99.90;;;;;;5025692;28;20427;-65
2022/03/10 02:54:42;;;;;;;4.57;3.30;;;1.70;99.90;;;;;;5018935;28;20139;-69
2022/03/10 02:57:09;;;;;;;3.85;3.40;;;1.70;99.90;;;;;;5026093;28;20057;-70
2022/03/10 02:59:36;;;;;;;5.18;4.68;;;1.60;99.90;;;;;;5018626;28;20045;-69
2022/03/10 03:02:04;;;;;;;5.72;3.33;;;1.70;99.90;;;;;;5015680;28;20049;-70
2022/03/10 03:04:31;;;;;;;4.20;3.55;;;1.70;99.90;;;;;;5019120;28;20057;-73
2022/03/10 03:06:59;;;;;;;5.45;4.68;;;1.70;99.90;;;;;;5020334;28;20778;-64
2022/03/10 03:09:26;;;;;;;5.30;3.38;;;1.70;99.90;;;;;;5018286;28;20120;-73
2022/03/10 03:11:53;;;;;;;3.78;3.38;;;1.60;99.90;;;;;;5013888;28;20069;-68
2022/03/10 03:14:22;;;;;;;5.15;3.85;;;1.60;99.90;;;;;;5015639;28;20084;-64
2022/03/10 03:16:51;;;;;;;5.88;4.13;;;1.60;99.90;;;;;;5016065;28;20049;-68
2022/03/10 03:19:18;;;;;;;4.68;3.63;;;1.60;99.90;;;;;;5017457;28;20472;-63
2022/03/10 03:21:46;;;;;;;4.75;3.67;;;1.60;99.90;;;;;;5024963;28;20053;-67
2022/03/10 03:24:13;;;;;;;5.85;4.43;;;1.60;99.90;;;;;;5018770;28;20053;-64
2022/03/10 03:26:41;;;;;;;4.80;4.10;;;1.60;99.90;;;;;;5024085;28;20109;-64
2022/03/10 03:29:09;;;;;;;3.92;3.50;;;1.60;99.90;;;;;;5019944;28;20057;-67
2022/03/10 03:31:36;;;;;;;4.03;3.70;;;1.60;99.90;;;;;;5016358;28;20168;-69
2022/03/10 03:34:10;;;;;;;4.63;3.92;;;1.60;99.90;;;;;;5021641;28;20049;-66
2022/03/10 03:36:42;;;;;;;4.05;3.33;;;1.60;99.90;;;;;;5015478;28;20083;-67
2022/03/10 03:39:10;;;;;;;3.88;3.13;;;1.60;99.90;;;;;;5021990;28;20079;-66
2022/03/10 03:41:37;;;;;;;4.82;2.78;;;1.60;99.90;;;;;;5019594;28;20049;-67
2022/03/10 03:44:08;;;;;;;5.32;3.25;;;1.60;99.90;;;;;;5023699;28;20073;-68
2022/03/10 03:46:35;;;;;;;8.55;4.35;;;1.60;99.90;;;;;;5017349;28;20127;-68
2022/03/10 03:49:06;;;;;;;3.38;2.78;;;1.60;99.90;;;;;;5010477;28;20515;-69
2022/03/10 03:51:33;;;;;;;2.83;2.50;;;1.60;99.90;;;;;;5017188;28;20141;-67
2022/03/10 03:54:00;;;;;;;3.95;2.70;;;1.60;99.90;;;;;;5024256;28;20073;-64
2022/03/10 03:56:28;;;;;;;4.10;2.65;;;1.60;99.90;;;;;;5017859;28;20115;-71
2022/03/10 03:58:54;;;;;;;4.05;3.15;;;1.60;99.90;;;;;;5019651;28;20076;-66
2022/03/10 04:01:21;;;;;;;5.35;4.20;;;1.60;99.90;;;;;;5019201;28;20053;-63
2022/03/10 04:03:49;;;;;;;4.05;3.05;;;1.60;99.90;;;;;;5018936;28;20049;-69
2022/03/10 04:06:16;;;;;;;5.13;3.63;;;1.50;99.90;;;;;;5020760;28;20730;-68
2022/03/10 04:08:43;;;;;;;4.10;3.70;;;1.50;99.90;;;;;;5019028;28;20617;-69
2022/03/10 04:11:10;;;;;;;5.15;3.67;;;1.50;99.90;;;;;;5023759;28;20060;-66
2022/03/10 04:13:37;;;;;;;4.47;3.97;;;1.50;99.90;;;;;;5020118;28;20706;-68
2022/03/10 04:16:06;;;;;;;4.43;3.83;;;1.60;99.90;;;;;;5019229;28;20120;-68
2022/03/10 04:18:35;;;;;;;4.53;3.83;;;1.50;99.90;;;;;;5019167;28;20159;-70
2022/03/10 04:21:02;;;;;;;7.13;4.18;;;1.50;99.90;;;;;;5020152;28;20053;-65
2022/03/10 04:23:29;;;;;;;4.10;3.70;;;1.60;99.90;;;;;;5018602;28;20073;-69
2022/03/10 04:25:56;;;;;;;5.43;3.90;;;1.50;99.90;;;;;;5021116;28;20081;-68
2022/03/10 04:28:23;;;;;;;4.60;3.63;;;1.50;99.90;;;;;;5019141;28;20163;-67
2022/03/10 04:30:50;;;;;;;4.47;3.35;;;1.50;99.90;;;;;;5019275;28;20152;-72
2022/03/10 04:33:21;;;;;;;5.03;3.65;;;1.50;99.90;;;;;;5020883;28;20045;-68
2022/03/10 04:35:50;;;;;;;5.32;4.00;;;1.50;99.90;;;;;;5024755;28;20057;-70
2022/03/10 04:38:17;;;;;;;3.63;2.83;;;1.50;99.90;;;;;;5000937;28;20049;-66
2022/03/10 04:40:45;;;;;;;7.63;3.28;;;1.50;99.90;;;;;;5013979;28;20041;-68
2022/03/10 04:43:13;;;;;;;4.65;3.33;;;1.50;99.90;;;;;;5020711;28;20464;-64
2022/03/10 04:45:39;;;;;;;4.22;2.85;;;1.50;99.90;;;;;;5002782;28;20073;-67
2022/03/10 04:48:06;;;;;;;5.28;2.97;;;1.40;99.90;;;;;;5023412;28;20166;-64
2022/03/10 04:50:34;;;;;;;4.03;2.85;;;1.40;99.90;;;;;;5017652;28;20065;-68
2022/03/10 04:53:01;;;;;;;3.20;2.70;;;1.40;99.90;;;;;;5025008;28;20041;-63
2022/03/10 04:55:28;;;;;;;3.58;3.13;;;1.40;99.90;;;;;;5017426;28;20727;-70
2022/03/10 04:57:55;;;;;;;3.90;3.28;;;1.40;99.90;;;;;;5013196;28;20135;-66
2022/03/10 05:00:22;;;;;;;3.45;2.63;;;1.40;99.90;;;;;;5017954;28;20069;-65
2022/03/10 05:02:49;;;;;;;2.83;2.45;;;1.40;99.90;;;;;;5014365;28;20045;-64
2022/03/10 05:05:18;;;;;;;4.20;3.00;;;1.40;99.90;;;;;;5018288;28;20126;-66
2022/03/10 05:07:45;;;;;;;3.63;3.05;;;1.40;99.90;;;;;;5022195;28;21531;-66
2022/03/10 05:10:13;;;;;;;3.40;2.30;;;1.40;99.90;;;;;;5025309;28;20224;-63
2022/03/10 05:13:03;;;;;;;5.10;2.40;;;1.40;99.90;;;;;;5016345;28;20111;-63
2022/03/10 05:15:32;;;;;;;6.75;2.97;;;1.40;99.90;;;;;;5024116;28;20053;-72
2022/03/10 05:18:01;;;;;;;5.82;2.67;;;1.40;99.90;;;;;;5020008;28;20072;-63
2022/03/10 05:20:29;;;;;;;4.00;2.72;;;1.40;99.90;;;;;;5024261;28;20072;-68
2022/03/10 05:22:58;;;;;;;4.55;2.72;;;1.40;99.90;;;;;;5021696;28;20081;-71
2022/03/10 05:25:37;;;;;;;5.60;2.95;;;1.40;99.90;;;;;;5021678;28;20041;-70
2022/03/10 05:28:07;;;;;;;6.95;2.65;;;1.30;99.90;;;;;;5025634;28;20083;-67
2022/03/10 05:30:37;;;;;;;10.82;3.88;;;1.30;99.90;;;;;;5024213;28;20127;-64
2022/03/10 05:33:04;;;;;;;6.57;3.70;;;1.30;99.90;;;;;;5022687;28;20128;-63
2022/03/10 05:35:31;;;;;;;4.78;3.88;;;1.30;99.90;;;;;;5025885;28;20593;-73
2022/03/10 05:37:59;;;;;;;4.85;3.25;;;1.30;99.90;;;;;;5021482;28;20053;-64
2022/03/10 05:40:26;;;;;;;7.80;3.80;;;1.30;99.90;;;;;;5022314;28;20157;-65
2022/03/10 05:42:54;;;;;;;8.85;3.45;;;1.30;99.90;;;;;;5019038;28;20133;-68
2022/03/10 05:45:22;;;;;;;9.65;5.15;;;1.30;99.90;;;;;;5025199;28;20136;-66
2022/03/10 05:47:54;;;;;;;11.15;3.78;;;1.40;99.90;;;;;;5021260;28;20073;-68
2022/03/10 05:50:22;;;;;;;9.90;4.65;;;1.40;99.90;;;;;;5022071;28;20119;-67
2022/03/10 05:52:49;;;;;;;11.02;5.30;;;1.40;99.90;;;;;;5019416;28;20057;-67
2022/03/10 05:55:20;;;;;;;8.70;3.78;;;1.40;99.90;;;;;;5026548;28;20228;-63
2022/03/10 05:57:47;;;;;;;5.95;4.20;;;1.40;99.90;;;;;;5005047;28;20463;-66
2022/03/10 06:00:15;;;;;;;13.07;4.55;;;1.30;99.90;;;;;;5024645;28;20859;-68
2022/03/10 06:02:42;;;;;;;10.20;5.38;;;1.30;99.90;;;;;;5015988;28;20478;-65
2022/03/10 06:05:10;;;;;;;6.72;3.78;;;1.30;99.90;;;;;;5013071;28;20120;-72
2022/03/10 06:07:37;;;;;;;7.53;3.30;;;1.30;99.90;;;;;;5022015;28;20120;-67
2022/03/10 06:10:05;;;;;;;4.07;3.33;;;1.40;99.90;;;;;;5017717;28;20112;-68
2022/03/10 06:12:32;;;;;;;7.75;4.18;;;1.40;99.90;;;;;;5020682;28;20112;-70
2022/03/10 06:15:03;;;;;;;4.60;3.50;;;1.30;99.90;;;;;;5017851;28;20053;-71
2022/03/10 06:17:30;;;;;;;;;;;1.30;99.90;;;;;;5022485;28;20113;-71
2022/03/10 06:19:57;;;;;;;7.35;4.50;;;1.30;99.90;;;;;;5026319;28;19932;-70
2022/03/10 06:22:27;;;;;;;6.78;2.90;;;1.30;99.90;;;;;;5024668;28;20778;-68
2022/03/10 06:24:55;;;;;;;8.93;4.63;;;1.20;99.90;;;;;;5022464;28;20575;-69
2022/03/10 06:27:22;;;;;;;9.48;3.47;;;1.20;99.90;;;;;;5025032;28;20152;-65
2022/03/10 06:29:50;;;;;;;10.13;3.70;;;1.20;99.90;;;;;;5019738;28;20053;-70
2022/03/10 06:32:18;;;;;;;10.80;4.63;;;1.10;99.90;;;;;;5020936;28;20049;-71
2022/03/10 06:34:47;;;;;;;8.05;5.47;;;1.20;99.90;;;;;;5022031;28;20428;-65
2022/03/10 06:37:15;;;;;;;9.30;4.68;;;1.10;99.90;;;;;;5027848;28;20088;-66
2022/03/10 06:39:41;;;;;;;15.52;4.78;;;1.10;99.90;;;;;;5023666;28;20046;-69
2022/03/10 06:42:09;;;;;;;11.07;4.65;;;1.10;99.90;;;;;;5028353;28;20052;-73
2022/03/10 06:44:37;;;;;;;18.40;3.90;;;1.10;99.90;;;;;;5024392;28;20507;-64
2022/03/10 06:47:12;;;;;;;14.85;5.25;;;1.10;99.90;;;;;;5022746;28;20041;-67
2022/03/10 06:49:39;;;;;;;12.48;4.43;;;1.10;99.90;;;;;;5020227;28;20056;-64
2022/03/10 06:52:08;;;;;;;9.93;4.45;;;1.10;99.90;;;;;;5022574;28;20057;-64
2022/03/10 06:54:36;;;;;;;15.95;4.68;;;1.20;99.90;;;;;;5019425;28;20064;-71
2022/03/10 06:57:03;;;;;;;13.63;4.20;;;1.20;99.90;;;;;;5020574;28;20164;-63
2022/03/10 06:59:30;;;;;;;8.27;5.47;;;1.20;99.90;;;;;;5019948;28;20157;-65
2022/03/10 07:01:57;;;;;;;11.50;4.32;;;1.30;99.90;;;;;;5028821;28;20132;-65
2022/03/10 07:04:24;;;;;;;12.25;4.95;;;1.30;99.90;;;;;;5020255;28;20103;-68
2022/03/10 07:06:52;;;;;;;16.58;4.60;;;1.40;99.90;;;;;;5014260;28;20049;-64
2022/03/10 07:09:20;;;;;;;15.80;7.72;;;1.40;99.90;;;;;;5018753;28;20072;-66
2022/03/10 07:11:47;;;;;;;6.05;3.50;;;1.50;99.90;;;;;;5014077;28;20455;-66
2022/03/10 07:14:14;;;;;;;6.90;4.30;;;1.50;99.90;;;;;;5020303;28;20069;-67
2022/03/10 07:16:41;;;;;;;10.15;4.22;;;1.60;99.90;;;;;;5015180;28;20166;-70
2022/03/10 07:19:10;;;;;;;10.93;4.30;;;1.60;99.90;;;;;;5018898;28;20041;-69
2022/03/10 07:21:37;;;;;;;10.32;3.38;;;1.70;99.90;;;;;;5006974;28;20075;-67
2022/03/10 07:24:05;;;;;;;4.65;3.00;;;1.80;99.90;;;;;;5022493;28;20045;-65
2022/03/10 07:26:33;;;;;;;7.30;3.72;;;1.90;99.90;;;;;;5019051;28;20053;-74
2022/03/10 07:29:00;;;;;;;11.98;3.00;;;1.90;99.90;;;;;;5019429;28;20068;-64
2022/03/10 07:31:28;;;;;;;7.55;3.78;;;2.00;99.90;;;;;;5020245;28;20144;-66
2022/03/10 07:33:57;;;;;;;5.13;3.05;;;2.00;99.90;;;;;;5018670;28;20046;-65
2022/03/10 07:36:24;;;;;;;5.60;3.03;;;2.00;99.90;;;;;;5023565;28;20115;-69
2022/03/10 07:38:51;;;;;;;6.03;3.33;;;2.00;99.90;;;;;;5017095;28;20057;-66
2022/03/10 07:41:18;;;;;;;4.78;2.97;;;2.00;99.90;;;;;;5019190;28;20128;-69
2022/03/10 07:43:46;;;;;;;7.65;3.30;;;2.10;99.90;;;;;;5018300;28;20096;-70
2022/03/10 07:46:13;;;;;;;20.58;5.13;;;2.10;99.90;;;;;;5029156;28;20076;-63
2022/03/10 07:48:40;;;;;;;7.45;3.22;;;2.20;99.90;;;;;;5013389;28;20554;-66
2022/03/10 07:51:07;;;;;;;12.85;3.25;;;2.30;99.90;;;;;;5025994;28;20056;-68
2022/03/10 07:53:34;;;;;;;5.30;3.03;;;2.40;99.90;;;;;;5019623;28;20045;-64
2022/03/10 07:56:04;;;;;;;8.95;3.75;;;2.50;99.90;;;;;;5021254;28;20045;-66
2022/03/10 07:58:32;;;;;;;8.75;3.75;;;2.50;99.90;;;;;;5016857;28;20049;-71
2022/03/10 08:00:59;;;;;;;8.60;4.95;;;2.60;99.90;;;;;;5017291;28;20383;-67
2022/03/10 08:03:27;;;;;;;7.93;3.03;;;2.60;99.90;;;;;;5018389;28;20041;-65
2022/03/10 08:05:54;;;;;;;7.20;3.10;;;2.70;99.90;;;;;;5025192;28;20801;-73
2022/03/10 08:08:21;;;;;;;6.28;3.10;;;2.80;99.90;;;;;;5019660;28;20146;-64
2022/03/10 08:10:48;;;;;;;6.43;3.35;;;2.80;99.90;;;;;;5023942;28;20049;-64
2022/03/10 08:13:15;;;;;;;5.85;3.65;;;2.90;99.90;;;;;;5025061;28;20057;-73
2022/03/10 08:15:43;;;;;;;10.10;4.47;;;2.90;99.90;;;;;;5024535;28;20540;-64
2022/03/10 08:18:11;;;;;;;4.93;3.28;;;3.00;99.90;;;;;;5022279;28;20376;-73
2022/03/10 08:20:39;;;;;;;4.15;3.05;;;3.00;99.90;;;;;;5014325;28;20069;-72
2022/03/10 08:23:07;;;;;;;7.13;2.60;;;3.10;99.90;;;;;;5012985;28;20038;-64
2022/03/10 08:25:38;;;;;;;10.20;3.35;;;3.10;99.90;;;;;;5030293;28;20423;-67
2022/03/10 08:28:08;;;;;;;5.22;3.42;;;3.20;99.90;;;;;;5018600;28;20062;-64
2022/03/10 08:30:35;;;;;;;4.37;2.70;;;3.20;99.90;;;;;;5021448;28;20192;-65
2022/03/10 08:33:03;;;;;;;6.05;2.67;;;3.20;99.90;;;;;;5020788;28;20473;-64
2022/03/10 08:35:30;;;;;;;4.22;2.88;;;3.30;99.90;;;;;;5025043;28;20045;-74
2022/03/10 08:37:57;;;;;;;8.65;3.17;;;3.30;99.90;;;;;;5020112;28;20079;-68
2022/03/10 08:40:25;;;;;;;9.02;3.28;;;3.40;99.90;;;;;;5025489;28;20069;-66
2022/03/10 08:42:52;;;;;;;6.45;3.90;;;3.50;99.90;;;;;;5025289;28;20049;-65
2022/03/10 08:45:21;;;;;;;3.95;2.60;;;3.50;99.90;;;;;;5025977;28;20056;-71
2022/03/10 08:47:48;;;;;;;6.40;3.30;;;3.60;99.90;;;;;;5024801;28;20117;-65
2022/03/10 08:50:24;;;;;;;5.38;2.70;;;3.70;99.90;;;;;;5021568;28;20076;-64
2022/03/10 08:52:51;;;;;;;9.82;4.47;;;3.70;99.90;;;;;;5021044;28;20064;-64
2022/03/10 08:55:20;;;;;;;6.97;2.88;;;3.80;99.90;;;;;;5022511;28;20077;-70
2022/03/10 08:57:47;;;;;;;5.72;2.60;;;3.90;99.90;;;;;;5031293;28;20499;-64
2022/03/10 09:00:16;;;;;;;3.30;2.22;;;4.00;99.90;;;;;;5022154;28;20050;-68
2022/03/10 09:02:43;;;;;;;7.85;2.47;;;4.10;99.90;;;;;;5029302;28;20050;-68
2022/03/10 09:05:10;;;;;;;6.40;2.45;;;4.20;99.90;;;;;;5020134;28;20055;-69
2022/03/10 09:07:37;;;;;;;4.97;3.15;;;4.30;99.90;;;;;;5030469;28;20099;-65
2022/03/10 09:10:10;;;;;;;5.25;2.80;;;4.30;99.90;;;;;;5029502;28;20063;-65
2022/03/10 09:12:39;;;;;;;7.22;2.72;;;4.40;99.90;;;;;;5023806;28;20045;-69
2022/03/10 09:15:07;;;;;;;9.35;2.03;;;4.40;99.90;;;;;;5022084;28;20622;-64
2022/03/10 09:17:34;;;;;;;7.72;2.70;;;4.40;99.90;;;;;;5027567;28;20467;-65
2022/03/10 09:20:01;;;;;;;6.43;3.08;;;4.50;99.90;;;;;;5029387;28;20161;-64
2022/03/10 09:22:28;;;;;;;2.88;2.00;;;4.50;99.90;;;;;;5006863;28;20543;-68
2022/03/10 09:24:55;;;;;;;4.20;2.00;;;4.60;99.90;;;;;;5022873;28;20137;-68
2022/03/10 09:27:22;;;;;;;7.82;2.22;;;4.60;99.90;;;;;;5034465;28;20409;-65
2022/03/10 09:29:49;;;;;;;5.25;2.40;;;4.70;99.90;;;;;;5029214;28;20099;-67
2022/03/10 09:32:17;;;;;;;4.78;2.78;;;4.80;99.90;;;;;;5028658;28;20085;-64
2022/03/10 09:34:44;;;;;;;15.90;2.30;;;4.90;99.90;;;;;;5029818;28;20170;-64
2022/03/10 09:37:11;;;;;;;4.43;2.47;;;4.90;99.90;;;;;;5034051;28;20423;-66
2022/03/10 09:39:38;;;;;;;3.95;2.50;;;4.80;99.90;;;;;;5036293;28;20439;-66
2022/03/10 09:42:08;;;;;;;5.20;2.42;;;4.90;99.90;;;;;;5031727;28;20194;-66
2022/03/10 09:44:36;;;;;;;8.77;2.03;;;4.80;99.90;;;;;;5029347;28;20094;-67
2022/03/10 09:47:05;;;;;;;6.13;2.38;;;4.80;99.90;;;;;;5024252;28;20073;-64
2022/03/10 09:49:36;;;;;;;3.65;2.10;;;4.80;99.90;;;;;;5023314;28;20113;-69
2022/03/10 09:52:03;;;;;;;3.00;1.98;;;4.80;99.90;;;;;;5023771;28;20085;-68
2022/03/10 09:54:30;;;;;;;3.55;1.77;;;4.80;99.90;;;;;;5034000;28;20118;-72
2022/03/10 09:56:58;;;;;;;2.47;1.80;;;4.70;99.90;;;;;;5026871;28;20073;-67
2022/03/10 09:59:30;;;;;;;4.82;2.55;;;4.70;99.90;;;;;;5025307;28;20391;-69
2022/03/10 10:01:57;;;;;;;7.15;3.72;;;4.70;99.90;;;;;;5031582;28;20080;-69
2022/03/10 10:04:24;;;;;;;3.25;1.85;;;4.80;99.90;;;;;;5028921;28;20042;-68
2022/03/10 10:07:01;;;;;;;4.35;2.28;;;4.90;99.90;;;;;;5029425;28;20044;-70
2022/03/10 10:09:41;;;;;;;3.60;2.15;;;4.90;99.90;;;;;;5018371;28;20383;-70
2022/03/10 10:12:10;;;;;;;3.72;1.90;;;5.00;99.90;;;;;;5015477;28;20048;-69
2022/03/10 10:14:42;;;;;;;6.45;1.33;;;5.00;99.90;;;;;;4997389;28;20049;-63
2022/03/10 10:17:10;;;;;;;6.30;2.00;;;5.10;99.90;;;;;;5026687;28;20073;-67
2022/03/10 10:19:40;;;;;;;3.42;1.73;;;5.20;99.90;;;;;;5024975;28;20196;-65
2022/03/10 10:22:28;;;;;;;3.35;2.92;;;5.30;99.90;;;;;;5028039;28;20048;-65
2022/03/10 10:24:58;;;;;;;6.35;1.92;;;5.30;99.90;;;;;;5032802;28;20481;-79
2022/03/10 10:27:29;;;;;;;6.40;2.38;;;5.30;99.90;;;;;;5026735;28;20135;-64
2022/03/10 10:30:00;;;;;;;3.22;2.17;;;5.30;99.90;;;;;;5026772;28;20045;-64
2022/03/10 10:32:30;;;;;;;;;;;5.30;99.90;;;;;;5025583;28;20084;-64
2022/03/10 10:35:23;;;;;;;2.97;2.10;;;5.30;99.90;;;;;;5023350;28;20024;-67
2022/03/10 10:37:54;;;;;;;7.63;2.45;;;5.30;99.90;;;;;;5026938;28;20053;-73
2022/03/10 10:40:24;;;;;;;3.40;2.03;;;5.40;99.90;;;;;;5032764;28;20045;-65
2022/03/10 10:42:51;;;;;;;4.40;1.80;;;5.40;99.90;;;;;;5019076;28;20069;-68
2022/03/10 10:45:31;;;;;;;3.05;1.48;;;5.30;99.90;;;;;;5027112;28;20052;-64
2022/03/10 10:48:03;;;;;;;2.92;2.22;;;5.40;99.90;;;;;;5028039;28;20256;-64
2022/03/10 10:50:32;;;;;;;7.72;2.72;;;5.40;99.90;;;;;;5023290;28;20132;-68
2022/03/10 10:52:59;;;;;;;10.35;3.53;;;5.50;99.90;;;;;;5030720;28;20496;-66
2022/03/10 10:55:35;;;;;;;3.53;1.52;;;5.60;99.90;;;;;;5022385;28;20760;-70
2022/03/10 10:58:10;;;;;;;5.28;3.00;;;5.60;99.90;;;;;;5021835;28;20080;-65
2022/03/10 11:00:46;;;;;;;4.57;2.33;;;5.80;99.90;;;;;;5021604;28;20057;-63
2022/03/10 11:03:28;;;;;;;3.53;2.03;;;5.70;99.90;;;;;;5023856;28;22375;-67
2022/03/10 11:05:58;;;;;;;4.78;2.22;;;5.70;99.90;;;;;;5026405;28;20053;-63
2022/03/10 11:08:28;;;;;;;6.53;2.80;;;5.50;99.90;;;;;;5022991;28;20101;-65
2022/03/10 11:10:55;;;;;;;3.90;2.30;;;5.50;99.90;;;;;;5028669;28;20064;-73
2022/03/10 11:13:23;;;;;;;3.22;2.33;;;5.50;99.90;;;;;;5018491;28;20053;-65
2022/03/10 11:15:53;;;;;;;5.25;2.45;;;5.50;99.90;;;;;;5031164;28;20056;-67
2022/03/10 11:18:22;;;;;;;5.85;2.55;;;5.50;99.90;;;;;;5025801;28;20256;-66
2022/03/10 11:20:59;;;;;;;5.03;2.47;;;5.60;99.90;;;;;;5026622;28;20788;-68
2022/03/10 11:23:48;;;;;;;6.38;2.33;;;5.60;99.90;;;;;;5035853;28;20446;-67
2022/03/10 11:26:24;;;;;;;8.85;2.85;;;5.60;99.90;;;;;;5022610;28;20073;-65
2022/03/10 11:28:53;;;;;;;3.00;1.85;;;5.60;99.90;;;;;;5019498;28;20151;-68
2022/03/10 11:31:21;;;;;;;3.40;2.58;;;5.70;99.90;;;;;;5020640;28;20045;-62
2022/03/10 11:33:48;;;;;;;10.10;3.15;;;5.80;99.90;;;;;;5020608;28;20111;-68
2022/03/10 11:36:30;;;;;;;5.47;3.15;;;5.90;99.90;;;;;;5022068;28;20140;-64
2022/03/10 11:39:04;;;;;;;6.22;2.60;;;5.70;99.90;;;;;;5030912;28;20428;-65
2022/03/10 11:41:45;;;;;;;4.03;2.45;;;5.60;99.90;;;;;;5023247;28;20053;-66
2022/03/10 11:44:13;;;;;;;6.00;2.75;;;5.60;99.90;;;;;;5021646;28;20092;-64
2022/03/10 11:47:00;;;;;;;7.72;2.30;;;5.70;99.90;;;;;;5020149;28;20084;-64
2022/03/10 11:49:41;;;;;;;15.65;4.85;;;5.70;99.90;;;;;;5019699;28;20104;-66
2022/03/10 11:52:28;;;;;;;10.95;3.97;;;5.80;99.90;;;;;;5018530;28;20077;-71
2022/03/10 11:55:07;;;;;;;5.13;2.65;;;5.90;99.90;;;;;;5019057;28;20123;-67
2022/03/10 11:57:53;;;;;;;12.07;3.50;;;5.70;99.90;;;;;;5021464;28;20096;-69
2022/03/10 12:00:41;;;;;;;8.82;4.05;;;5.90;99.90;;;;;;5016544;28;20049;-68
2022/03/10 12:03:08;;;;;;;8.13;3.17;;;5.80;99.90;;;;;;5013774;28;20035;-64
2022/03/10 12:05:56;;;;;;;3.35;2.30;;;5.80;99.90;;;;;;5020952;28;20053;-75
2022/03/10 12:08:32;;;;;;;4.88;2.67;;;5.60;99.90;;;;;;5030353;28;20054;-64
2022/03/10 12:11:00;;;;;;;10.15;2.90;;;5.70;99.90;;;;;;5015149;28;20042;-66
2022/03/10 12:13:27;;;;;;;5.72;3.08;;;5.60;99.90;;;;;;5022430;28;20053;-64
2022/03/10 12:15:56;;;;;;;4.65;2.70;;;5.80;99.90;;;;;;5015671;28;20057;-65
2022/03/10 12:18:25;;;;;;;4.35;2.50;;;5.80;99.90;;;;;;5016357;28;20049;-64
2022/03/10 12:20:55;;;;;;;3.22;2.80;;;5.70;99.90;;;;;;5019675;28;20049;-64
2022/03/10 12:23:27;;;;;;;7.80;2.88;;;5.70;99.90;;;;;;5011693;28;20100;-67
2022/03/10 12:26:09;;;;;;;3.80;2.70;;;5.70;99.90;;;;;;5012771;28;20095;-69
2022/03/10 12:28:39;;;;;;;5.90;2.63;;;5.60;99.90;;;;;;5016607;28;20049;-66
2022/03/10 12:31:06;;;;;;;5.55;2.60;;;5.60;99.90;;;;;;5015685;28;20100;-63
2022/03/10 12:33:34;;;;;;;7.53;3.13;;;5.80;99.90;;;;;;5015322;28;20644;-67
2022/03/10 12:36:01;;;;;;;4.05;2.97;;;5.80;99.90;;;;;;4998704;28;20153;-69
2022/03/10 12:38:46;;;;;;;6.63;3.00;;;5.70;99.90;;;;;;5001519;28;20074;-68
2022/03/10 12:41:18;;;;;;;7.63;2.80;;;5.70;99.90;;;;;;5007179;28;20045;-69
2022/03/10 12:43:53;;;;;;;12.35;3.42;;;5.70;99.90;;;;;;4999516;28;20128;-66
2022/03/10 12:46:21;;;;;;;5.95;2.65;;;5.50;99.90;;;;;;5000989;28;20047;-68
2022/03/10 12:49:11;;;;;;;8.13;2.60;;;5.40;99.90;;;;;;4996443;28;20053;-69
2022/03/10 12:51:39;;;;;;;8.43;3.10;;;5.30;99.90;;;;;;4993414;28;20411;-68
2022/03/10 12:54:08;;;;;;;5.45;3.83;;;5.30;99.90;;;;;;5003569;28;20084;-64
2022/03/10 12:56:56;;;;;;;9.25;5.82;;;5.20;99.90;;;;;;5003630;28;20405;-64
2022/03/10 12:59:28;;;;;;;8.93;4.97;;;5.30;99.90;;;;;;5006853;28;20062;-64
2022/03/10 13:02:13;;;;;;;27.90;9.27;;;5.50;99.90;;;;;;4994642;28;20077;-73
2022/03/10 13:05:02;;;;;;;10.32;3.78;;;5.60;99.90;;;;;;4996707;28;20445;-70
2022/03/10 13:07:36;;;;;;;7.03;2.67;;;5.70;99.90;;;;;;5004164;28;20432;-74
2022/03/10 13:10:09;;;;;;;11.50;2.60;;;5.70;99.90;;;;;;5005905;28;20057;-66
2022/03/10 13:12:39;;;;;;;5.63;2.25;;;5.90;99.90;;;;;;4993248;28;20080;-71